KSBD

San Bernardino International Airport

San Bernardino, California, USA
METAR KSBD 182050Z 22005KT 5SM HZ FEW060 35/13 A3001
Observed Flight Rules
Aug-18 @ 20:50 UTC (an hour ago) Marginal Visual Flight Rules
Wind Visibility Clouds Conditions
220° at 5 knots 5 miles
  • Few at 6,000' AGL
  • Haze
Temperatures Readings
Current 35°C / 95°F
Dewpoint 13°C / 55°F
Humidity 26%
Altimeter 30.01" Hg
Pressure 1016 hPa
Elevation 353
METAR KSBD 182050Z 22005KT 5SM HZ FEW060 35/13 A3001
Observed Flight Rules
Aug-18 @ 20:50 UTC
(an hour ago)
MVFR
Wind Visibility
220° at 5 knots 5 miles
Clouds
  • Few at 6,000' AGL
Conditions
  • Haze
Temperature Dewpoint
35°C / 95°F 13°C / 55°F
Humidity Altimeter Pressure
26% 30.01" Hg 1016 hPa